Time;durP1;ratioP1;P1;durP2;ratioP2;P2;SDS_P1;SDS_P2;PMS_P1;PMS_P2;Temp;Humidity;BMP_temperature;BMP_pressure;BME280_temperature;BME280_humidity;BME280_pressure;Samples;Min_cycle;Max_cycle;Signal;HPM_P1;HPM_P2
2023/06/30 00:00:15;;;;;;;;;25.67;19.67;;;;;17.91;77.47;101316.75;5057255;28;45524;-76
2023/06/30 00:02:46;;;;;;;;;12.67;11.00;;;;;17.88;77.13;101316.88;5057037;28;45477;-76
2023/06/30 00:05:11;;;;;;;;;13.00;10.33;;;;;17.73;77.46;101313.06;5056548;28;45415;-75
2023/06/30 00:07:37;;;;;;;;;11.00;8.67;;;;;17.77;77.65;101313.81;5057118;28;45316;-77
2023/06/30 00:10:03;;;;;;;;;13.33;9.33;;;;;17.75;77.29;101316.53;5057258;28;45733;-76
2023/06/30 00:12:28;;;;;;;;;4.33;2.33;;;;;17.77;77.36;101308.47;5057040;28;46131;-78
2023/06/30 00:14:54;;;;;;;;;7.00;5.00;;;;;17.72;77.45;101306.88;5056741;28;45388;-77
2023/06/30 00:17:19;;;;;;;;;6.00;4.33;;;;;17.71;77.47;101305.16;5057007;28;45316;-76
2023/06/30 00:19:44;;;;;;;;;4.00;4.00;;;;;17.64;76.45;101308.16;5057004;28;45417;-77
2023/06/30 00:22:10;;;;;;;;;5.33;5.33;;;;;17.47;76.47;101282.25;5056839;28;45589;-77
2023/06/30 00:24:35;;;;;;;;;5.00;3.67;;;;;17.64;76.68;101311.66;5056772;28;45390;-77
2023/06/30 00:27:00;;;;;;;;;5.33;4.00;;;;;17.61;76.66;101311.81;5056800;28;45281;-76
2023/06/30 00:29:26;;;;;;;;;11.33;7.67;;;;;17.54;76.51;101307.66;5057086;28;45217;-77
2023/06/30 00:31:51;;;;;;;;;9.00;4.67;;;;;17.48;76.62;101298.16;5056549;28;46191;-78
2023/06/30 00:34:16;;;;;;;;;4.00;4.00;;;;;17.54;76.86;101313.00;5056726;28;45387;-78
2023/06/30 00:36:42;;;;;;;;;2.33;2.33;;;;;17.51;76.32;101302.47;5056992;28;45578;-78
2023/06/30 00:39:07;;;;;;;;;5.00;3.33;;;;;17.50;76.83;101314.06;5056811;28;45475;-77
2023/06/30 00:41:32;;;;;;;;;3.00;3.00;;;;;17.45;76.81;101298.28;5056741;28;46160;-76
2023/06/30 00:43:58;;;;;;;;;6.00;4.00;;;;;17.46;76.82;101312.47;5056771;28;45503;-77
2023/06/30 00:46:24;;;;;;;;;7.00;4.00;;;;;17.45;76.23;101313.41;5056561;28;45479;-77
2023/06/30 00:48:50;;;;;;;;;4.33;3.00;;;;;17.39;76.51;101310.06;5056920;28;45332;-77
2023/06/30 00:51:15;;;;;;;;;5.67;3.00;;;;;17.36;76.52;101307.53;5056143;28;45367;-75
2023/06/30 00:53:41;;;;;;;;;4.00;4.00;;;;;17.33;76.61;101305.00;5056603;28;45345;-77
2023/06/30 00:56:06;;;;;;;;;5.33;3.00;;;;;17.30;77.13;101310.47;5056869;28;45399;-77
2023/06/30 00:58:32;;;;;;;;;5.00;4.00;;;;;17.22;76.87;101300.13;5056691;28;45309;-77
2023/06/30 01:01:15;;;;;;;;;4.00;3.00;;;;;17.25;77.06;101301.78;5058950;28;45483;-75
2023/06/30 01:03:44;;;;;;;;;7.67;7.67;;;;;17.23;76.83;101303.66;5059930;28;45376;-77
2023/06/30 01:06:14;;;;;;;;;19.00;13.67;;;;;17.14;77.00;101288.94;5059658;28;45360;-76
2023/06/30 01:08:51;;;;;;;;;30.00;25.33;;;;;17.16;77.04;101303.03;5059788;28;45562;-75
2023/06/30 01:11:18;;;;;;;;;36.00;32.67;;;;;17.17;76.70;101303.91;5059461;28;46745;-76
2023/06/30 01:13:46;;;;;;;;;41.67;35.00;;;;;17.10;76.52;101294.47;5059460;28;45375;-78
2023/06/30 01:16:12;;;;;;;;;41.67;33.33;;;;;17.11;76.55;101297.06;5059254;28;45259;-77
2023/06/30 01:18:41;;;;;;;;;42.33;33.67;;;;;16.83;76.72;101255.59;5059763;28;45308;-76
2023/06/30 01:21:12;;;;;;;;;35.67;31.00;;;;;17.04;76.57;101285.78;5058748;28;47141;-69
2023/06/30 01:23:42;;;;;;;;;41.00;34.00;;;;;17.07;76.51;101291.94;5059196;28;45257;-75
2023/06/30 01:26:08;;;;;;;;;37.33;33.00;;;;;17.01;76.41;101283.25;5059488;28;45327;-75
2023/06/30 01:28:34;;;;;;;;;36.67;31.67;;;;;17.05;76.85;101289.34;5059569;28;45516;-76
2023/06/30 01:31:00;;;;;;;;;17.33;16.67;;;;;17.04;76.22;101288.44;5059033;28;46536;-76
2023/06/30 01:33:27;;;;;;;;;20.00;12.67;;;;;16.99;76.46;101284.25;5059326;28;45357;-78
2023/06/30 01:35:53;;;;;;;;;13.00;9.33;;;;;16.99;76.10;101289.56;5059163;28;45752;-78
2023/06/30 01:38:18;;;;;;;;;7.33;5.67;;;;;16.91;76.25;101279.25;5059759;28;45399;-78
2023/06/30 01:40:46;;;;;;;;;9.00;5.00;;;;;16.92;76.35;101277.44;5045393;28;46375;-78
2023/06/30 01:43:12;;;;;;;;;4.67;4.67;;;;;16.94;76.36;101287.09;5038947;28;45367;-78
2023/06/30 01:45:39;;;;;;;;;3.00;3.00;;;;;16.87;76.11;101280.25;5039509;28;45373;-80
2023/06/30 01:48:04;;;;;;;;;4.00;3.00;;;;;16.76;76.04;101262.09;5039395;28;45336;-79
2023/06/30 01:50:32;;;;;;;;;4.00;4.00;;;;;16.71;76.09;101256.06;5038919;28;45575;-77
2023/06/30 01:52:59;;;;;;;;;6.33;4.00;;;;;16.78;76.46;101273.50;5038866;28;45442;-78
2023/06/30 01:55:25;;;;;;;;;3.00;3.00;;;;;16.76;76.90;101274.50;5038999;28;45304;-78
2023/06/30 01:57:50;;;;;;;;;3.67;3.67;;;;;16.65;76.98;101256.31;5039367;28;45434;-78
2023/06/30 02:00:16;;;;;;;;;4.00;4.00;;;;;16.66;76.55;101263.38;5038696;28;46219;-77
2023/06/30 02:02:41;;;;;;;;;5.00;5.00;;;;;16.65;77.38;101264.31;5038735;28;45501;-78
2023/06/30 02:05:07;;;;;;;;;7.00;7.00;;;;;16.59;76.82;101252.13;5038902;28;45368;-76
2023/06/30 02:07:32;;;;;;;;;3.67;3.67;;;;;16.62;77.09;101259.97;5038841;28;45506;-78
2023/06/30 02:09:58;;;;;;;;;4.67;4.67;;;;;16.61;77.26;101262.69;5038576;28;46492;-78
2023/06/30 02:12:23;;;;;;;;;4.67;4.67;;;;;16.54;77.16;101257.63;5037926;28;45447;-78
2023/06/30 02:14:49;;;;;;;;;7.00;5.67;;;;;16.52;77.45;101258.59;5038771;28;45363;-78
2023/06/30 02:17:14;;;;;;;;;7.00;7.00;;;;;16.51;77.37;101265.72;5038831;28;45343;-79
2023/06/30 02:19:40;;;;;;;;;10.00;8.33;;;;;16.45;77.34;101259.78;5038489;28;47379;-80
2023/06/30 02:22:05;;;;;;;;;11.67;10.00;;;;;16.45;77.13;101259.78;5038587;28;45444;-77
2023/06/30 02:24:31;;;;;;;;;8.33;7.67;;;;;16.43;77.77;101270.47;5038645;28;45258;-81
2023/06/30 02:26:56;;;;;;;;;10.33;9.33;;;;;16.40;77.67;101267.94;5038586;28;45261;-80
2023/06/30 02:29:21;;;;;;;;;9.67;9.67;;;;;16.45;78.07;101268.59;5038395;28;46554;-78
2023/06/30 02:31:47;;;;;;;;;12.67;9.33;;;;;16.44;77.95;101261.56;5038418;28;45265;-80
2023/06/30 02:34:12;;;;;;;;;12.00;12.00;;;;;16.45;77.85;101270.41;5038655;28;45673;-75
2023/06/30 02:36:37;;;;;;;;;13.00;8.33;;;;;16.42;77.58;101266.06;5038569;28;45385;-72
2023/06/30 02:39:03;;;;;;;;;9.67;9.67;;;;;16.30;78.22;101255.94;5038190;28;46350;-73
2023/06/30 02:41:28;;;;;;;;;11.00;9.33;;;;;16.26;77.92;101257.81;5038121;28;45258;-73
2023/06/30 02:43:53;;;;;;;;;8.67;8.67;;;;;16.35;78.32;101275.19;5038003;28;45666;-73
2023/06/30 02:46:19;;;;;;;;;42.33;27.00;;;;;16.30;78.29;101266.56;5038736;28;45339;-73
2023/06/30 02:48:44;;;;;;;;;15.33;13.33;;;;;16.26;78.11;101263.13;5037979;28;45364;-75
2023/06/30 02:51:09;;;;;;;;;15.00;13.33;;;;;16.29;78.09;101273.63;5037841;28;45444;-74
2023/06/30 02:53:35;;;;;;;;;15.00;14.33;;;;;16.26;78.32;101268.44;5038098;28;45613;-74
2023/06/30 02:56:00;;;;;;;;;13.67;13.33;;;;;16.32;78.34;101270.91;5038190;28;45209;-74
2023/06/30 02:58:25;;;;;;;;;15.33;13.00;;;;;16.24;78.85;101258.81;5038112;28;46238;-71
2023/06/30 03:00:51;;;;;;;;;14.33;14.33;;;;;16.02;78.25;101222.44;5037607;28;45285;-71
2023/06/30 03:03:16;;;;;;;;;14.33;13.00;;;;;16.29;78.79;101278.94;5037925;28;45344;-71
2023/06/30 03:05:42;;;;;;;;;13.67;11.33;;;;;16.25;79.14;101277.38;5038198;28;45372;-72
2023/06/30 03:08:07;;;;;;;;;10.67;10.67;;;;;16.23;78.93;101276.53;5037509;28;46554;-72
2023/06/30 03:10:32;;;;;;;;;12.00;11.33;;;;;16.20;79.38;101274.00;5037705;28;45467;-71
2023/06/30 03:12:58;;;;;;;;;12.00;10.33;;;;;16.16;79.98;101278.59;5037625;28;45393;-71
2023/06/30 03:15:23;;;;;;;;;14.67;14.33;;;;;16.07;80.19;101264.78;5038063;28;45400;-72
2023/06/30 03:17:48;;;;;;;;;14.33;12.00;;;;;16.03;79.98;101253.38;5037620;28;46470;-73
2023/06/30 03:20:14;;;;;;;;;13.00;13.00;;;;;16.08;80.20;101264.72;5037693;28;45363;-73
2023/06/30 03:22:41;;;;;;;;;17.33;11.67;;;;;16.02;80.20;101254.31;5037260;28;45333;-72
2023/06/30 03:25:08;;;;;;;;;26.00;21.67;;;;;16.05;80.55;101270.13;5037768;28;45317;-72
2023/06/30 03:27:34;;;;;;;;;15.00;13.33;;;;;16.02;80.41;101271.13;5037222;28;46400;-72
2023/06/30 03:30:00;;;;;;;;;12.67;11.33;;;;;16.02;80.96;101273.78;5037475;28;45294;-71
2023/06/30 03:32:25;;;;;;;;;8.33;6.67;;;;;15.96;80.98;101266.03;5037740;28;45316;-71
2023/06/30 03:34:51;;;;;;;;;6.67;6.33;;;;;15.95;80.92;101264.28;5037643;28;45288;-71
2023/06/30 03:37:16;;;;;;;;;11.00;11.00;;;;;15.96;81.30;101274.00;5037241;28;46283;-71
2023/06/30 03:39:41;;;;;;;;;9.67;9.00;;;;;15.91;81.31;101267.97;5037294;28;45420;-71
2023/06/30 03:42:07;;;;;;;;;10.33;9.33;;;;;15.87;81.37;101263.69;5037538;28;45488;-71
2023/06/30 03:44:32;;;;;;;;;16.00;11.00;;;;;15.72;81.93;101233.25;5037598;28;45375;-71
2023/06/30 03:46:57;;;;;;;;;65.50;53.25;;;;;15.84;81.26;101255.84;5037019;28;46512;-71
2023/06/30 03:49:23;;;;;;;;;21.33;18.67;;;;;15.80;81.92;101257.75;5037185;28;45432;-76
2023/06/30 03:51:49;;;;;;;;;18.67;17.00;;;;;15.74;82.85;101246.47;5037202;28;45480;-75
2023/06/30 03:54:14;;;;;;;;;27.00;17.67;;;;;15.78;82.85;101262.25;5037367;28;45806;-74
2023/06/30 03:56:40;;;;;;;;;19.00;18.33;;;;;15.69;82.69;101245.78;5037121;28;45319;-74
2023/06/30 03:59:05;;;;;;;;;18.33;17.33;;;;;15.48;82.73;101217.28;5037049;28;45400;-74
2023/06/30 04:01:33;;;;;;;;;14.00;11.67;;;;;15.62;83.59;101250.44;5036958;28;45383;-75
2023/06/30 04:03:59;;;;;;;;;14.67;10.00;;;;;15.63;83.29;101258.34;5037273;28;45545;-72
2023/06/30 04:06:25;;;;;;;;;9.00;5.67;;;;;15.66;83.74;101258.22;5035329;28;46474;-71
2023/06/30 04:08:50;;;;;;;;;11.67;10.33;;;;;15.74;83.38;101265.03;5036900;28;45324;-71
2023/06/30 04:11:15;;;;;;;;;10.67;9.67;;;;;15.67;83.64;101249.34;5037103;28;45318;-74
2023/06/30 04:13:40;;;;;;;;;8.33;7.33;;;;;15.73;83.66;101258.88;5037155;28;45455;-75
2023/06/30 04:16:06;;;;;;;;;12.33;8.67;;;;;15.74;83.23;101259.72;5036838;28;45546;-73
2023/06/30 04:18:32;;;;;;;;;10.00;7.33;;;;;15.72;83.97;101261.59;5036981;28;45645;-73
2023/06/30 04:20:58;;;;;;;;;9.33;9.33;;;;;15.58;84.36;101249.69;5036786;28;45490;-74
2023/06/30 04:23:23;;;;;;;;;8.67;8.67;;;;;15.54;84.69;101247.16;5037149;28;45351;-74
2023/06/30 04:25:48;;;;;;;;;10.00;8.67;;;;;15.52;85.16;101236.59;5036694;28;45401;-73
2023/06/30 04:28:13;;;;;;;;;7.67;7.67;;;;;15.54;84.52;101231.25;5036761;28;45349;-74
2023/06/30 04:30:39;;;;;;;;;8.00;7.67;;;;;15.59;84.90;101238.13;5036667;28;45360;-74
2023/06/30 04:33:04;;;;;;;;;11.50;8.00;;;;;15.67;84.93;101248.50;5036770;28;45289;-75
2023/06/30 04:35:29;;;;;;;;;9.00;6.33;;;;;15.74;84.73;101241.16;5039688;28;45574;-75
2023/06/30 04:37:55;;;;;;;;;21.67;18.00;;;;;15.75;84.82;101240.22;5040099;28;45414;-75
2023/06/30 04:40:20;;;;;;;;;8.33;8.33;;;;;15.89;84.75;101250.38;5040369;28;45306;-74
2023/06/30 04:42:46;;;;;;;;;13.00;11.33;;;;;15.96;84.34;101255.41;5040322;28;45262;-74
2023/06/30 04:45:11;;;;;;;;;12.00;9.67;;;;;15.98;84.27;101250.03;5040019;28;46588;-74
2023/06/30 04:47:36;;;;;;;;;18.00;16.33;;;;;15.99;84.47;101247.31;5038687;28;45354;-74
2023/06/30 04:50:04;;;;;;;;;14.33;13.00;;;;;16.08;84.80;101254.09;5040228;28;45237;-74
2023/06/30 04:52:29;;;;;;;;;19.67;14.33;;;;;16.11;84.73;101245.13;5040231;28;45453;-74
2023/06/30 04:54:56;;;;;;;;;18.33;15.67;;;;;16.21;84.49;101246.50;5039489;28;47091;-74
2023/06/30 04:57:21;;;;;;;;;19.33;13.67;;;;;16.20;84.00;101236.81;5039847;28;45439;-70
2023/06/30 04:59:47;;;;;;;;;12.67;12.67;;;;;16.25;84.08;101240.16;5039828;28;45396;-69
2023/06/30 05:02:12;;;;;;;;;15.33;11.00;;;;;16.30;84.45;101230.22;5039934;28;45294;-70
2023/06/30 05:04:37;;;;;;;;;12.00;11.00;;;;;16.33;84.35;101235.41;5039652;28;46907;-70
2023/06/30 05:07:03;;;;;;;;;14.33;10.67;;;;;16.40;84.53;101228.06;5039487;28;45366;-70
2023/06/30 05:09:28;;;;;;;;;17.00;17.00;;;;;16.58;84.06;101246.88;5039916;28;45342;-70
2023/06/30 05:11:54;;;;;;;;;23.67;18.67;;;;;16.47;84.20;101228.69;5039802;28;45368;-70
2023/06/30 05:14:19;;;;;;;;;20.67;17.67;;;;;16.60;84.34;101243.22;5039415;28;46472;-71
2023/06/30 05:16:45;;;;;;;;;15.67;13.00;;;;;16.70;84.35;101241.94;5039567;28;45360;-71
2023/06/30 05:19:10;;;;;;;;;23.67;15.33;;;;;16.72;84.56;101236.53;5039611;28;45415;-71
2023/06/30 05:21:35;;;;;;;;;15.00;13.00;;;;;16.82;84.11;101245.88;5039763;28;45494;-71
2023/06/30 05:24:01;;;;;;;;;14.67;13.33;;;;;16.84;83.38;101237.81;5039325;28;46274;-70
2023/06/30 05:26:26;;;;;;;;;11.33;11.33;;;;;16.91;83.12;101255.31;5039165;28;45339;-71
2023/06/30 05:28:52;;;;;;;;;14.33;12.33;;;;;16.95;83.27;101248.94;5039486;28;45269;-71
2023/06/30 05:31:17;;;;;;;;;17.00;12.00;;;;;16.98;82.92;101254.13;5039418;28;45419;-71
2023/06/30 05:33:42;;;;;;;;;12.00;12.00;;;;;17.00;82.81;101251.41;5039238;28;46288;-71
2023/06/30 05:36:07;;;;;;;;;28.00;27.00;;;;;16.98;82.70;101242.63;5039261;28;45249;-72
2023/06/30 05:38:33;;;;;;;;;11.67;11.67;;;;;16.96;82.58;101237.38;5039234;28;45442;-71
2023/06/30 05:40:58;;;;;;;;;10.33;9.00;;;;;17.01;82.91;101251.31;5039357;28;45458;-74
2023/06/30 05:43:24;;;;;;;;;13.00;10.00;;;;;16.97;82.17;101246.22;5039183;28;45336;-75
2023/06/30 05:45:50;;;;;;;;;12.33;9.33;;;;;17.00;81.92;101244.28;5039172;28;45498;-75
2023/06/30 05:48:15;;;;;;;;;10.00;7.00;;;;;16.99;82.20;101245.22;5039206;28;45345;-75
2023/06/30 05:50:41;;;;;;;;;8.67;7.00;;;;;16.99;81.69;101236.34;5039094;28;45419;-75
2023/06/30 05:53:06;;;;;;;;;12.00;7.67;;;;;16.97;81.75;101231.09;5038789;28;46315;-75
2023/06/30 05:55:31;;;;;;;;;9.00;7.33;;;;;17.01;81.46;101237.16;5038919;28;45403;-75
2023/06/30 05:57:57;;;;;;;;;9.67;8.67;;;;;16.99;81.93;101231.91;5039265;28;45561;-72
2023/06/30 06:00:24;;;;;;;;;12.33;8.67;;;;;16.98;81.66;101224.00;5038718;28;45487;-77
2023/06/30 06:02:49;;;;;;;;;11.67;9.33;;;;;16.96;81.68;101228.50;5038343;28;46667;-77
2023/06/30 06:05:15;;;;;;;;;16.67;10.00;;;;;16.99;81.62;101229.25;5038813;28;45411;-77
2023/06/30 06:07:41;;;;;;;;;6.00;6.00;;;;;17.04;81.41;101240.56;5038822;28;45292;-76
2023/06/30 06:10:06;;;;;;;;;6.00;6.00;;;;;17.02;81.03;101231.78;5038966;28;45378;-74
2023/06/30 06:12:32;;;;;;;;;8.67;8.67;;;;;17.00;81.01;101228.31;5038413;28;46223;-69
2023/06/30 06:14:57;;;;;;;;;6.67;6.00;;;;;17.08;80.93;101240.41;5038881;28;45475;-80
2023/06/30 06:17:22;;;;;;;;;3.33;2.00;;;;;17.03;81.01;101233.53;5039041;28;45245;-71
2023/06/30 06:19:48;;;;;;;;;6.00;4.00;;;;;17.04;80.33;101245.03;5038869;28;45320;-69
2023/06/30 06:22:13;;;;;;;;;4.00;4.00;;;;;16.99;80.45;101234.56;5038571;28;46346;-69
2023/06/30 06:24:38;;;;;;;;;12.33;12.33;;;;;16.98;80.53;101235.50;5038383;28;45332;-70
2023/06/30 06:27:04;;;;;;;;;7.67;6.67;;;;;17.04;79.72;101239.69;5038208;28;45400;-75
2023/06/30 06:29:29;;;;;;;;;7.00;5.67;;;;;17.08;79.15;101243.09;5038787;28;45412;-75
2023/06/30 06:31:55;;;;;;;;;7.67;4.67;;;;;17.15;77.91;101247.22;5038054;28;47179;-75
2023/06/30 06:34:21;;;;;;;;;4.33;4.33;;;;;17.21;77.81;101249.63;5038654;28;45256;-75
2023/06/30 06:36:47;;;;;;;;;6.33;3.33;;;;;17.19;77.46;101241.72;5038229;28;45473;-73
2023/06/30 06:39:12;;;;;;;;;8.00;6.00;;;;;17.18;77.25;101239.97;5038070;28;45598;-72
2023/06/30 06:41:38;;;;;;;;;25.67;24.00;;;;;17.23;76.82;101240.63;5038164;28;47134;-73
2023/06/30 06:44:04;;;;;;;;;10.00;8.33;;;;;17.23;76.88;101237.13;5038090;28;45334;-70
2023/06/30 06:46:30;;;;;;;;;7.00;5.00;;;;;17.25;77.41;101237.06;5038357;28;45372;-72
2023/06/30 06:48:56;;;;;;;;;5.33;4.33;;;;;17.18;78.16;101232.00;5038308;28;45309;-76
2023/06/30 06:51:21;;;;;;;;;3.67;3.67;;;;;17.11;78.20;101229.66;5037542;28;46894;-76
2023/06/30 06:53:47;;;;;;;;;6.67;4.00;;;;;17.16;77.06;101227.66;5037864;28;45625;-76
2023/06/30 06:56:12;;;;;;;;;6.00;6.00;;;;;17.19;77.51;101216.88;5038175;28;45187;-75
2023/06/30 06:58:38;;;;;;;;;9.00;2.67;;;;;17.25;77.03;101213.09;5037808;28;45498;-75
2023/06/30 07:01:03;;;;;;;;;8.67;5.00;;;;;17.45;77.43;101230.88;5037440;28;46516;-75
2023/06/30 07:03:29;;;;;;;;;5.00;5.00;;;;;17.61;76.04;101239.03;5037619;28;45331;-76
2023/06/30 07:05:56;;;;;;;;;4.00;4.00;;;;;17.75;74.63;101240.16;5037953;28;45245;-75
2023/06/30 07:08:22;;;;;;;;;7.00;6.00;;;;;17.85;74.11;101240.59;5037899;28;45557;-76
2023/06/30 07:10:50;;;;;;;;;6.67;5.00;;;;;18.01;73.07;101250.63;5037700;28;45350;-76
2023/06/30 07:13:20;;;;;;;;;5.67;5.00;;;;;18.01;72.90;101239.94;5037779;28;45506;-76
2023/06/30 07:15:47;;;;;;;;;4.67;4.67;;;;;18.10;72.31;101248.38;5037576;28;45311;-78
2023/06/30 07:18:13;;;;;;;;;8.33;5.00;;;;;18.07;72.28;101229.00;5037964;28;45501;-77
2023/06/30 07:20:39;;;;;;;;;7.00;7.00;;;;;18.13;71.44;101239.38;5036694;28;46315;-75
2023/06/30 07:23:04;;;;;;;;;8.00;7.00;;;;;18.12;71.40;101237.63;5037063;28;45388;-78
2023/06/30 07:25:29;;;;;;;;;6.00;4.67;;;;;18.16;71.59;101238.38;5037848;28;45384;-75
2023/06/30 07:27:57;;;;;;;;;6.33;6.33;;;;;18.23;71.20;101240.66;5037535;28;45407;-77
2023/06/30 07:30:24;;;;;;;;;6.00;6.00;;;;;18.32;71.25;101249.19;5037161;28;45491;-72
2023/06/30 07:32:50;;;;;;;;;7.00;5.00;;;;;18.44;71.98;101254.78;5037133;28;45296;-69
2023/06/30 07:35:16;;;;;;;;;7.00;6.33;;;;;18.58;71.03;101254.13;5037348;28;45376;-72
2023/06/30 07:37:42;;;;;;;;;11.33;5.00;;;;;18.68;70.62;101251.03;5037908;28;45250;-71
2023/06/30 07:40:08;;;;;;;;;4.67;4.00;;;;;18.71;69.50;101238.38;5037677;28;46464;-69
2023/06/30 07:42:33;;;;;;;;;29.33;26.33;;;;;18.95;70.09;101252.34;5037155;28;45313;-71
2023/06/30 07:44:59;;;;;;;;;7.67;5.00;;;;;19.15;68.79;101242.47;5036985;28;45297;-69
2023/06/30 07:47:25;;;;;;;;;6.00;4.67;;;;;19.33;66.96;101234.44;5037452;28;45420;-76
2023/06/30 07:49:50;;;;;;;;;9.00;5.67;;;;;19.47;66.58;101237.28;5037013;28;46492;-75
2023/06/30 07:52:15;;;;;;;;;5.00;3.33;;;;;19.65;66.16;101238.13;5047053;28;45344;-75
2023/06/30 07:54:43;;;;;;;;;4.00;4.00;;;;;19.75;65.34;101219.78;5054138;28;45557;-75
2023/06/30 07:57:08;;;;;;;;;6.00;4.67;;;;;19.98;65.09;101234.59;5052032;28;45442;-75
2023/06/30 07:59:33;;;;;;;;;7.67;5.00;;;;;20.14;63.59;101224.81;5056071;28;45629;-76
2023/06/30 08:01:59;;;;;;;;;3.00;3.00;;;;;20.43;64.06;101234.81;5055975;28;45495;-76
2023/06/30 08:04:25;;;;;;;;;6.00;3.00;;;;;20.53;60.18;101239.56;5056168;28;45490;-79
2023/06/30 08:06:50;;;;;;;;;4.33;4.33;;;;;20.68;59.09;101226.25;5056567;28;45341;-76
2023/06/30 08:09:15;;;;;;;;;3.33;3.00;;;;;20.81;59.98;101232.66;5072499;28;46205;-76
2023/06/30 08:11:40;;;;;;;;;5.00;3.33;;;;;20.78;58.98;101231.97;5060005;28;45335;-76
2023/06/30 08:14:06;;;;;;;;;5.33;3.00;;;;;20.61;58.64;101214.19;5060648;28;45414;-76
2023/06/30 08:16:32;;;;;;;;;4.00;4.00;;;;;20.51;58.74;101229.91;5060891;28;45320;-75
2023/06/30 08:18:57;;;;;;;;;4.00;4.00;;;;;20.32;59.63;101216.69;5059275;28;46627;-75
2023/06/30 08:21:22;;;;;;;;;4.33;4.33;;;;;20.24;60.35;101216.25;5059811;28;45408;-74
2023/06/30 08:23:48;;;;;;;;;2.67;2.67;;;;;20.29;61.04;101222.22;5059634;28;45310;-78
2023/06/30 08:26:14;;;;;;;;;5.67;3.67;;;;;20.28;61.50;101225.84;5060484;28;45435;-75
2023/06/30 08:28:39;;;;;;;;;4.33;4.33;;;;;20.30;62.20;101222.16;5060205;28;45709;-75
2023/06/30 08:31:05;;;;;;;;;3.67;3.67;;;;;20.37;61.52;101221.78;5059960;28;45435;-75
2023/06/30 08:33:30;;;;;;;;;13.67;11.33;;;;;20.52;61.90;101219.09;5060273;28;45463;-72
2023/06/30 08:35:56;;;;;;;;;4.00;2.67;;;;;20.72;60.85;101216.25;5060350;28;45485;-72
2023/06/30 08:38:21;;;;;;;;;4.67;3.67;;;;;20.97;58.88;101215.69;5060153;28;47413;-72
2023/06/30 08:40:47;;;;;;;;;4.00;2.00;;;;;21.36;58.14;101222.28;5060071;28;45379;-73
2023/06/30 08:43:12;;;;;;;;;4.33;3.00;;;;;21.57;53.57;101217.47;5059252;28;45446;-73
2023/06/30 08:45:44;;;;;;;;;4.67;3.00;;;;;21.68;53.48;101215.00;5060402;28;45211;-72
2023/06/30 08:48:12;;;;;;;;;4.33;3.00;;;;;21.77;52.53;101208.19;5058803;28;46717;-73
2023/06/30 08:50:38;;;;;;;;;2.00;2.00;;;;;21.99;52.21;101221.09;5059024;28;45316;-73
2023/06/30 08:53:04;;;;;;;;;4.00;2.33;;;;;22.15;50.27;101212.09;5040699;28;45470;-71
2023/06/30 08:55:30;;;;;;;;;2.33;2.00;;;;;22.30;51.19;101210.22;5039888;28;45350;-73
2023/06/30 08:57:56;;;;;;;;;3.33;1.00;;;;;22.42;50.00;101201.41;5039839;28;46564;-71
2023/06/30 09:00:23;;;;;;;;;4.00;4.00;;;;;22.66;48.62;101198.94;5039344;28;45547;-74
2023/06/30 09:02:49;;;;;;;;;2.00;2.00;;;;;22.75;49.61;101192.09;5039635;28;45381;-73
2023/06/30 09:05:15;;;;;;;;;2.00;2.00;;;;;22.94;49.52;101202.44;5039112;28;45365;-72
2023/06/30 09:07:55;;;;;;;;;3.00;2.00;;;;;23.08;49.23;101194.31;5039528;28;47583;-71
2023/06/30 09:10:26;;;;;;;;;3.00;2.00;;;;;23.33;48.04;101200.69;5049736;28;45454;-72
2023/06/30 09:12:57;;;;;;;;;3.33;3.00;;;;;23.70;48.42;101195.44;5059709;28;45531;-72
2023/06/30 09:15:24;;;;;;;;;2.00;2.00;;;;;24.01;46.13;101193.25;5053019;28;45506;-72
2023/06/30 09:17:51;;;;;;;;;2.00;1.67;;;;;24.15;47.19;101193.13;5039433;28;46065;-71
2023/06/30 09:20:19;;;;;;;;;2.00;2.00;;;;;24.57;47.09;101192.72;5047975;28;45411;-72
2023/06/30 09:22:45;;;;;;;;;3.33;3.33;;;;;24.99;44.58;101189.63;5059500;28;45326;-71
2023/06/30 09:25:26;;;;;;;;;2.00;2.00;;;;;25.05;45.33;101189.13;5059535;28;45601;-72
2023/06/30 09:27:52;;;;;;;;;2.67;2.67;;;;;24.88;45.24;101190.44;5059518;28;46297;-72
2023/06/30 09:30:17;;;;;;;;;1.33;1.33;;;;;24.66;44.73;101185.84;5059311;28;45378;-72
2023/06/30 09:32:43;;;;;;;;;4.00;2.00;;;;;24.58;46.33;101185.53;5059595;28;45340;-72
2023/06/30 09:35:12;;;;;;;;;2.67;2.33;;;;;24.74;45.84;101180.72;5059487;28;45439;-72
2023/06/30 09:37:42;;;;;;;;;3.00;3.00;;;;;25.77;45.26;101195.28;5059135;28;46468;-72
2023/06/30 09:40:17;;;;;;;;;3.00;2.00;;;;;26.45;43.66;101189.81;5059158;28;45421;-72
2023/06/30 09:42:44;;;;;;;;;2.33;2.33;;;;;26.81;43.29;101183.19;5059136;28;45368;-72
2023/06/30 09:45:13;;;;;;;;;3.00;3.00;;;;;26.91;44.24;101186.81;5059251;28;45294;-71
2023/06/30 09:47:39;;;;;;;;;2.00;2.00;;;;;26.76;44.44;101169.19;5059216;28;46583;-72
2023/06/30 09:50:05;;;;;;;;;3.67;3.00;;;;;26.73;44.54;101181.13;5058878;28;45436;-72
2023/06/30 09:52:33;;;;;;;;;3.00;3.00;;;;;26.33;44.74;101151.16;5058917;28;45399;-72
2023/06/30 09:55:08;;;;;;;;;47.25;39.00;;;;;26.17;45.13;101176.75;5058663;28;45485;-71
2023/06/30 09:57:37;;;;;;;;;3.00;3.00;;;;;26.17;45.67;101167.78;5058700;28;45313;-72
2023/06/30 10:00:02;;;;;;;;;7.33;4.67;;;;;26.18;45.47;101172.19;5058630;28;45276;-71
2023/06/30 10:02:28;;;;;;;;;5.00;3.67;;;;;26.16;45.35;101155.28;5059150;28;45383;-71
2023/06/30 10:04:53;;;;;;;;;4.33;3.67;;;;;26.72;43.95;101176.72;5059035;28;45440;-71
2023/06/30 10:07:19;;;;;;;;;3.33;3.33;;;;;26.80;44.94;101173.34;5058583;28;46297;-72
2023/06/30 10:09:46;;;;;;;;;4.67;4.67;;;;;26.58;44.63;101167.03;5058579;28;45505;-71
2023/06/30 10:12:14;;;;;;;;;2.67;2.67;;;;;26.38;45.49;101166.00;5057379;28;45305;-71
2023/06/30 10:14:41;;;;;;;;;5.00;5.00;;;;;26.00;45.97;101155.69;5059110;28;45455;-72
2023/06/30 10:17:08;;;;;;;;;6.00;5.00;;;;;25.76;46.18;101174.69;5058405;28;46761;-71
2023/06/30 10:19:38;;;;;;;;;6.67;6.00;;;;;25.73;46.99;101167.69;5058537;28;45332;-71
2023/06/30 10:22:03;;;;;;;;;7.67;4.00;;;;;25.88;47.16;101163.75;5058961;28;45457;-71
2023/06/30 10:24:37;;;;;;;;;7.33;5.00;;;;;26.26;46.32;101158.94;5058869;28;45270;-70
2023/06/30 10:27:05;;;;;;;;;6.67;5.67;;;;;26.84;45.01;101136.09;5058164;28;45646;-71
2023/06/30 10:29:31;;;;;;;;;5.00;5.00;;;;;27.96;44.22;101160.63;5058566;28;45423;-70
2023/06/30 10:31:56;;;;;;;;;6.67;6.00;;;;;28.88;43.99;101145.88;5057449;28;45408;-70
2023/06/30 10:34:22;;;;;;;;;6.67;6.67;;;;;29.74;42.34;101139.47;5058902;28;45278;-70
2023/06/30 10:36:48;;;;;;;;;12.00;9.33;;;;;30.56;40.38;101153.16;5058317;28;47197;-70
2023/06/30 10:39:15;;;;;;;;;5.00;4.00;;;;;30.79;38.72;101125.47;5057983;28;45534;-70
2023/06/30 10:41:48;;;;;;;;;3.00;3.00;;;;;30.55;38.52;101143.28;5058489;28;45422;-70
2023/06/30 10:44:14;;;;;;;;;5.67;4.00;;;;;30.16;38.72;101152.53;5058409;28;45327;-71
2023/06/30 10:46:47;;;;;;;;;4.00;4.00;;;;;29.97;38.94;101153.53;5058082;28;46635;-70
2023/06/30 10:49:36;;;;;;;;;3.00;3.00;;;;;29.98;40.11;101162.56;5058088;28;45288;-70
2023/06/30 10:52:06;;;;;;;;;4.33;2.33;;;;;30.70;38.13;101149.88;5035901;28;45246;-75
2023/06/30 10:54:37;;;;;;;;;2.33;2.33;;;;;31.55;38.05;101138.38;5036077;28;45506;-76
2023/06/30 10:57:08;;;;;;;;;3.00;3.00;;;;;32.49;36.13;101151.09;5034298;28;46195;-76
2023/06/30 10:59:38;;;;;;;;;3.33;3.00;;;;;33.18;34.53;101145.28;5035829;28;45465;-75
2023/06/30 11:02:09;;;;;;;;;6.00;3.33;;;;;33.60;34.52;101150.47;5035533;28;45394;-76
2023/06/30 11:04:39;;;;;;;;;3.00;1.67;;;;;33.61;33.61;101154.06;5035775;28;45251;-76
2023/06/30 11:07:07;;;;;;;;;1.67;1.67;;;;;33.11;32.28;101145.13;5032503;28;45462;-75
2023/06/30 11:09:48;;;;;;;;;4.00;2.67;;;;;32.45;33.91;101145.16;5034890;28;45466;-74
2023/06/30 11:12:23;;;;;;;;;3.33;1.67;;;;;31.97;33.33;101128.50;5035139;28;45455;-73
2023/06/30 11:14:55;;;;;;;;;2.00;2.00;;;;;31.53;34.47;101129.53;5035655;28;45476;-78